createdAt,value
2018-04-23T00:01:05.771Z,9.20
2018-04-23T00:05:09.216Z,14.60
2018-04-23T00:09:12.671Z,9.63
2018-04-23T00:13:15.369Z,10.70
2018-04-23T00:17:17.979Z,11.93
2018-04-23T00:21:20.624Z,14.33
2018-04-23T00:25:23.256Z,10.07
2018-04-23T00:29:25.900Z,11.17
2018-04-23T00:33:28.544Z,9.67
2018-04-23T00:37:31.975Z,15.03
2018-04-23T00:41:34.621Z,8.47
2018-04-23T00:45:37.268Z,11.30
2018-04-23T00:49:40.021Z,16.33
2018-04-23T00:53:42.700Z,11.80
2018-04-23T00:57:46.082Z,11.67
2018-04-23T01:01:48.829Z,9.97
2018-04-23T01:05:51.523Z,12.83
2018-04-23T01:09:54.157Z,11.87
2018-04-23T01:13:56.793Z,10.50
2018-04-23T01:17:59.465Z,11.93
2018-04-23T01:22:02.112Z,10.87
2018-04-23T01:26:04.756Z,12.90
2018-04-23T01:30:07.401Z,10.17
2018-04-23T01:34:10.052Z,11.30
2018-04-23T01:38:12.668Z,13.53
2018-04-23T01:42:15.409Z,12.33
2018-04-23T01:46:18.049Z,12.67
2018-04-23T01:50:20.691Z,12.07
2018-04-23T01:54:23.336Z,13.70
2018-04-23T01:58:25.972Z,12.87
2018-04-23T02:02:28.611Z,17.20
2018-04-23T02:06:31.304Z,11.77
2018-04-23T02:10:33.953Z,17.67
2018-04-23T02:14:36.604Z,13.93
2018-04-23T02:18:39.979Z,17.07
2018-04-23T02:22:42.633Z,17.50
2018-04-23T02:26:45.289Z,18.10
2018-04-23T02:30:47.941Z,15.03
2018-04-23T02:34:50.585Z,17.30
2018-04-23T02:38:53.196Z,22.27
2018-04-23T02:42:55.859Z,16.70
2018-04-23T02:46:58.563Z,16.33
2018-04-23T02:51:01.216Z,20.97
2018-04-23T02:55:04.630Z,20.97
2018-04-23T02:59:07.239Z,21.73
2018-04-23T03:03:09.885Z,21.97
2018-04-23T03:07:13.365Z,18.07
2018-04-23T03:11:16.007Z,15.77
2018-04-23T03:15:18.682Z,17.43
2018-04-23T03:19:22.053Z,20.80
2018-04-23T03:23:24.704Z,16.17
2018-04-23T03:27:27.347Z,18.70
2018-04-23T03:31:30.765Z,24.97
2018-04-23T03:35:34.132Z,14.70
2018-04-23T03:39:36.785Z,12.63
2018-04-23T03:43:39.432Z,14.03
2018-04-23T03:47:42.071Z,19.33
2018-04-23T03:51:44.709Z,14.10
2018-04-23T03:55:47.315Z,16.60
2018-04-23T03:59:50.729Z,15.23
2018-04-23T04:03:53.390Z,15.53
2018-04-23T04:07:56.040Z,15.07
2018-04-23T04:12:04.712Z,19.90
2018-04-23T04:16:19.323Z,15.40
2018-04-23T04:20:21.972Z,17.23
2018-04-23T04:24:25.387Z,18.97
2018-04-23T04:28:28.063Z,20.03
2018-04-23T04:32:31.580Z,20.17
2018-04-23T04:36:34.952Z,21.80
2018-04-23T04:40:37.604Z,22.67
2018-04-23T04:44:40.319Z,25.00
2018-04-23T04:48:42.955Z,26.43
2018-04-23T04:52:46.372Z,28.37
2018-04-23T04:56:49.735Z,26.57
2018-04-23T05:00:52.398Z,32.40
2018-04-23T05:04:55.040Z,29.87
2018-04-23T05:08:58.459Z,31.57
2018-04-23T05:13:01.075Z,33.97
2018-04-23T05:17:03.754Z,29.87
2018-04-23T05:21:06.395Z,29.07
2018-04-23T05:25:09.031Z,28.93
2018-04-23T05:29:11.680Z,32.67
2018-04-23T05:33:14.279Z,34.30
2018-04-23T05:37:17.745Z,35.20
2018-04-23T05:41:20.393Z,36.10
2018-04-23T05:45:23.096Z,39.63
2018-04-23T05:49:25.800Z,33.83
2018-04-23T05:53:28.404Z,32.83
2018-04-23T05:57:31.856Z,30.87
2018-04-23T06:01:35.272Z,39.83
2018-04-23T06:05:37.919Z,35.73
2018-04-23T06:09:40.576Z,30.67
2018-04-23T06:13:43.284Z,30.87
2018-04-23T06:17:46.741Z,30.87
2018-04-23T06:21:49.387Z,32.70
2018-04-23T06:25:52.041Z,31.97
2018-04-23T06:29:54.647Z,28.23
2018-04-23T06:33:57.621Z,23.97
2018-04-23T06:38:00.281Z,23.07
2018-04-23T06:42:03.686Z,31.77
2018-04-23T06:46:07.151Z,23.57
2018-04-23T06:50:09.735Z,21.53
2018-04-23T06:54:12.423Z,24.23
2018-04-23T06:58:15.075Z,27.77
2018-04-23T07:02:17.717Z,28.83
2018-04-23T07:06:20.417Z,24.57
2018-04-23T07:10:23.048Z,21.93
2018-04-23T07:14:25.689Z,18.57
2018-04-23T07:18:28.335Z,18.00
2018-04-23T07:22:30.982Z,25.33
2018-04-23T07:26:34.451Z,18.57
2018-04-23T07:30:37.047Z,17.80
2018-04-23T07:34:39.698Z,17.37
2018-04-23T07:38:42.354Z,18.93
2018-04-23T07:42:45.759Z,17.37
2018-04-23T07:50:40.341Z,14.97
2018-04-23T07:54:42.984Z,17.23
2018-04-23T07:58:46.397Z,17.53
2018-04-23T08:02:49.804Z,16.53
2018-04-23T08:06:52.424Z,15.27
2018-04-23T08:10:55.136Z,13.20
2018-04-23T08:14:57.781Z,12.87
2018-04-23T08:19:00.418Z,15.53
2018-04-23T08:23:03.056Z,15.43
2018-04-23T08:27:05.684Z,12.87
2018-04-23T08:31:08.316Z,9.90
2018-04-23T08:35:11.728Z,10.00
2018-04-23T08:39:15.133Z,7.27
2018-04-23T08:43:18.536Z,9.60
2018-04-23T08:47:21.943Z,9.47
2018-04-23T08:51:25.362Z,6.40
2018-04-23T08:55:27.997Z,8.23
2018-04-23T08:59:30.637Z,11.20
2018-04-23T09:03:33.237Z,9.40
2018-04-23T09:07:35.883Z,15.23
2018-04-23T09:11:38.528Z,7.43
2018-04-23T09:15:41.165Z,7.57
2018-04-23T09:19:44.619Z,8.40
2018-04-23T09:23:47.217Z,7.00
2018-04-23T09:31:54.239Z,8.00
2018-04-23T09:35:56.852Z,8.90
2018-04-23T09:39:59.488Z,10.33
2018-04-23T09:44:02.099Z,10.50
2018-04-23T09:48:04.741Z,8.77
2018-04-23T09:52:08.148Z,10.07
2018-04-23T09:56:11.552Z,13.20
2018-04-23T10:00:14.960Z,9.07
2018-04-23T10:04:21.298Z,10.20
2018-04-23T10:08:23.932Z,10.27
2018-04-23T10:12:26.572Z,6.50
2018-04-23T10:16:29.264Z,6.90
2018-04-23T10:20:31.972Z,7.50
2018-04-23T10:24:34.612Z,6.10
2018-04-23T10:28:37.246Z,7.13
2018-04-23T10:32:39.880Z,8.23
2018-04-23T10:36:42.516Z,6.93
2018-04-23T10:40:45.164Z,12.33
2018-04-23T10:44:47.768Z,7.07
2018-04-23T10:48:50.406Z,7.70
2018-04-23T10:52:53.044Z,6.73
2018-04-23T10:56:55.683Z,5.93
2018-04-23T11:00:58.320Z,9.73
2018-04-23T11:05:00.918Z,7.33
2018-04-23T11:09:03.659Z,6.20
2018-04-23T11:13:06.352Z,5.70
2018-04-23T11:17:08.987Z,7.27
2018-04-23T11:21:11.616Z,6.57
2018-04-23T11:25:15.029Z,7.40
2018-04-23T11:29:17.695Z,5.33
2018-04-23T11:33:21.103Z,6.37
2018-04-23T11:37:24.503Z,4.93
2018-04-23T11:41:27.908Z,6.07
2018-04-23T11:45:30.565Z,4.60
2018-04-23T11:49:33.207Z,6.87
2018-04-23T11:53:35.923Z,6.53
2018-04-23T11:57:38.553Z,5.90
2018-04-23T12:01:41.187Z,8.77
2018-04-23T12:05:43.780Z,7.90
2018-04-23T12:09:46.425Z,8.10
2018-04-23T12:13:49.871Z,5.23
2018-04-23T12:17:52.520Z,5.47
2018-04-23T12:21:55.242Z,5.93
2018-04-23T12:25:57.844Z,5.60
2018-04-23T12:30:00.484Z,5.80
2018-04-23T12:34:03.159Z,6.13
2018-04-23T12:38:05.849Z,9.80
2018-04-23T12:42:08.484Z,8.93
2018-04-23T12:46:11.132Z,6.33
2018-04-23T12:50:13.752Z,6.80
2018-04-23T12:54:16.427Z,5.10
2018-04-23T12:58:19.824Z,5.13
2018-04-23T13:02:22.465Z,7.43
2018-04-23T13:06:25.061Z,9.93
2018-04-23T13:10:27.732Z,5.70
2018-04-23T13:14:30.391Z,5.37
2018-04-23T13:18:33.796Z,5.50
2018-04-23T13:22:37.260Z,4.77
2018-04-23T13:26:39.862Z,4.57
2018-04-23T13:30:42.551Z,7.17
2018-04-23T13:34:45.183Z,4.13
2018-04-23T13:38:47.816Z,6.23
2018-04-23T13:42:50.453Z,5.13
2018-04-23T13:46:53.051Z,4.90
2018-04-23T13:50:55.736Z,3.67
2018-04-23T13:54:58.373Z,9.23
2018-04-23T13:59:01.015Z,6.23
2018-04-23T14:03:03.647Z,7.40
2018-04-23T14:07:06.240Z,5.87
2018-04-23T14:11:08.875Z,6.57
2018-04-23T14:15:11.508Z,5.60
2018-04-23T14:19:14.157Z,4.57
2018-04-23T14:23:16.800Z,5.03
2018-04-23T14:27:19.404Z,8.60
2018-04-23T14:31:22.807Z,6.67
2018-04-23T14:35:26.212Z,7.73
2018-04-23T14:39:29.611Z,5.27
2018-04-23T14:43:32.251Z,7.97
2018-04-23T14:47:34.844Z,5.17
2018-04-23T14:51:37.549Z,8.67
2018-04-23T14:55:40.198Z,5.43
2018-04-23T14:59:42.840Z,6.33
2018-04-23T15:03:45.479Z,10.80
2018-04-23T15:07:48.116Z,7.37
2018-04-23T15:11:50.812Z,6.90
2018-04-23T15:15:53.450Z,7.37
2018-04-23T15:19:56.090Z,5.83
2018-04-23T15:23:58.738Z,6.90
2018-04-23T15:28:01.341Z,5.23
2018-04-23T15:32:04.039Z,7.57
2018-04-23T15:36:06.678Z,5.13
2018-04-23T15:40:09.312Z,7.83
2018-04-23T15:44:12.013Z,6.97
2018-04-23T15:48:14.610Z,6.00
2018-04-23T15:52:17.249Z,6.50
2018-04-23T15:56:19.890Z,6.33
2018-04-23T16:00:23.295Z,4.00
2018-04-23T16:04:26.005Z,5.97
2018-04-23T16:08:29.369Z,9.93
2018-04-23T16:12:32.066Z,6.10
2018-04-23T16:16:34.699Z,6.23
2018-04-23T16:20:37.339Z,6.17
2018-04-23T16:24:40.119Z,7.87
2018-04-23T16:28:42.761Z,6.03
2018-04-23T16:32:45.399Z,5.63
2018-04-23T16:36:48.046Z,7.17
2018-04-23T16:40:50.691Z,11.27
2018-04-23T16:44:53.485Z,5.17
2018-04-23T16:48:56.088Z,4.93
2018-04-23T16:52:59.487Z,5.20
2018-04-23T16:57:02.946Z,6.60
2018-04-23T17:01:05.578Z,5.47
2018-04-23T17:05:08.217Z,7.80
2018-04-23T17:09:10.868Z,6.20
2018-04-23T17:13:14.285Z,13.70
2018-04-23T17:17:16.925Z,7.37
2018-04-23T17:21:19.570Z,7.53
2018-04-23T17:25:22.212Z,5.50
2018-04-23T17:29:24.841Z,5.50
2018-04-23T17:33:27.500Z,6.13
2018-04-23T17:37:30.147Z,2.27
2018-04-23T17:41:32.817Z,6.90
2018-04-23T17:45:35.456Z,5.30
2018-04-23T17:49:38.055Z,5.50
2018-04-23T17:53:40.730Z,2.93
2018-04-23T17:57:44.175Z,6.27
2018-04-23T18:01:47.589Z,6.27
2018-04-23T18:05:51.172Z,8.00
2018-04-23T18:09:53.771Z,5.27
2018-04-23T18:13:57.186Z,4.70
2018-04-23T18:17:59.875Z,5.50
2018-04-23T18:22:03.281Z,7.83
2018-04-23T18:26:06.684Z,7.43
2018-04-23T18:30:10.052Z,8.27
2018-04-23T18:34:12.693Z,6.23
2018-04-23T18:38:15.335Z,7.83
2018-04-23T18:42:18.783Z,7.47
2018-04-23T18:46:21.417Z,3.27
2018-04-23T18:50:24.120Z,4.03
2018-04-23T18:54:26.736Z,7.93
2018-04-23T18:58:29.674Z,5.90
2018-04-23T19:02:32.328Z,4.63
2018-04-23T19:06:35.744Z,3.10
2018-04-23T19:10:38.402Z,7.57
2018-04-23T19:14:41.771Z,4.20
2018-04-23T19:18:44.440Z,6.40
2018-04-23T19:22:47.093Z,6.13
2018-04-23T19:26:50.512Z,7.23
2018-04-23T19:30:53.169Z,5.67
2018-04-23T19:34:55.806Z,5.00
2018-04-23T19:38:58.440Z,7.13
2018-04-23T19:43:01.084Z,6.73
2018-04-23T19:47:03.732Z,5.73
2018-04-23T19:51:07.099Z,5.77
2018-04-23T19:55:09.804Z,4.77
2018-04-23T19:59:12.421Z,5.63
2018-04-23T20:03:15.844Z,5.43
2018-04-23T20:07:18.488Z,4.00
2018-04-23T20:11:21.947Z,5.37
2018-04-23T20:15:25.384Z,4.87
2018-04-23T20:19:28.074Z,8.90
2018-04-23T20:23:30.711Z,5.87
2018-04-23T20:27:34.123Z,5.33
2018-04-23T20:31:37.485Z,5.43
2018-04-23T20:35:40.141Z,6.83
2018-04-23T20:39:42.789Z,11.00
2018-04-23T20:43:45.427Z,4.67
2018-04-23T20:47:48.074Z,5.13
2018-04-23T20:51:51.440Z,9.77
2018-04-23T20:55:54.088Z,4.27
2018-04-23T20:59:56.736Z,8.63
2018-04-23T21:03:59.431Z,4.90
2018-04-23T21:08:02.027Z,5.20
2018-04-23T21:12:05.437Z,4.87
2018-04-23T21:16:08.843Z,6.60
2018-04-23T21:20:12.265Z,8.30
2018-04-23T21:24:14.904Z,6.90
2018-04-23T21:28:17.558Z,5.50
2018-04-23T21:32:20.202Z,7.53
2018-04-23T21:36:22.849Z,7.17
2018-04-23T21:40:25.500Z,5.80
2018-04-23T21:44:28.908Z,5.37
2018-04-23T21:48:31.512Z,8.50
2018-04-23T21:52:34.148Z,5.83
2018-04-23T21:56:36.792Z,7.13
2018-04-23T22:00:39.437Z,4.50
2018-04-23T22:04:42.901Z,8.40
2018-04-23T22:08:45.510Z,6.83
2018-04-23T22:12:48.160Z,7.83
2018-04-23T22:16:50.800Z,5.50
2018-04-23T22:20:53.438Z,9.27
2018-04-23T22:24:56.153Z,8.43
2018-04-23T22:28:58.766Z,6.00
2018-04-23T22:33:01.403Z,7.30
2018-04-23T22:37:04.042Z,5.97
2018-04-23T22:41:06.689Z,4.67
2018-04-23T22:45:09.341Z,7.53
2018-04-23T22:49:12.759Z,6.17
2018-04-23T22:53:15.396Z,7.17
2018-04-23T22:57:18.038Z,4.07
2018-04-23T23:01:20.676Z,11.37
2018-04-23T23:05:23.326Z,4.10
2018-04-23T23:09:25.976Z,6.30
2018-04-23T23:13:28.625Z,5.83
2018-04-23T23:17:31.264Z,7.07
2018-04-23T23:21:33.995Z,6.07
2018-04-23T23:25:36.632Z,6.90
2018-04-23T23:29:40.009Z,7.50
2018-04-23T23:33:43.464Z,5.70
2018-04-23T23:37:46.118Z,6.60
2018-04-23T23:41:48.773Z,6.73
2018-04-23T23:45:51.407Z,7.37
2018-04-23T23:49:54.004Z,7.67
2018-04-23T23:53:57.411Z,7.07
2018-04-23T23:58:00.873Z,7.37
